Terminal Aerodrome Forecast
Issued by NWS Louisville, KY

Home | Current Version | Previous Version | Text Only | Print | Product List | Glossary On
Versions: 1 2 3 4 5 6 7 8 9 10 11 12 13
549
FTUS43 KLMK 251121
TAFSDF
TAF
KSDF 251121Z 2512/2618 21007KT P6SM SCT250
     FM251400 24010KT P6SM SCT040
     FM260000 26005KT P6SM SCT250
     FM260900 VRB03KT P6SM SCT030 BKN250=

USA.gov is the U.S. government's official web portal to all federal, state and local government web resources and services.